Time;durP1;ratioP1;P1;durP2;ratioP2;P2;SDS_P1;SDS_P2;PMS_P1;PMS_P2;Temp;Humidity;BMP_temperature;BMP_pressure;BME280_temperature;BME280_humidity;BME280_pressure;Samples;Min_cycle;Max_cycle;Signal;HPM_P1;HPM_P2
2023/08/23 00:00:51;;;;;;;12.10;8.15;;;;;;;23.51;100.00;100351.38;5608529;31;33662;-68
2023/08/23 00:03:54;;;;;;;10.57;8.63;;;;;;;23.48;100.00;100344.56;5607754;31;33665;-68
2023/08/23 00:06:57;;;;;;;10.18;8.10;;;;;;;23.45;100.00;100336.16;5607568;31;33741;-68
2023/08/23 00:10:00;;;;;;;12.35;8.38;;;;;;;23.41;100.00;100333.09;5608478;31;34269;-68
2023/08/23 00:13:03;;;;;;;9.48;7.60;;;;;;;23.35;100.00;100329.50;5607713;31;33238;-68
2023/08/23 00:16:06;;;;;;;11.10;8.48;;;;;;;23.31;100.00;100331.09;5608102;31;34346;-68
2023/08/23 00:19:08;;;;;;;14.00;8.30;;;;;;;23.28;100.00;100331.63;5608746;31;32164;-68
2023/08/23 00:22:11;;;;;;;13.70;8.55;;;;;;;23.25;100.00;100336.69;5608235;31;34456;-68
2023/08/23 00:25:14;;;;;;;9.43;8.20;;;;;;;23.24;100.00;100337.75;5610707;31;33664;-67
2023/08/23 00:28:19;;;;;;;14.52;8.15;;;;;;;23.23;100.00;100328.84;5610570;31;33640;-68
2023/08/23 00:31:22;;;;;;;10.88;8.05;;;;;;;23.27;100.00;100323.72;5610559;31;33588;-68
2023/08/23 00:34:25;;;;;;;11.70;8.32;;;;;;;23.34;100.00;100327.88;5610595;31;33638;-68
2023/08/23 00:37:28;;;;;;;11.85;8.00;;;;;;;23.31;100.00;100325.69;5610488;31;33958;-68
2023/08/23 00:40:31;;;;;;;10.13;8.13;;;;;;;23.25;100.00;100334.81;5610981;31;33618;-68
2023/08/23 00:43:34;;;;;;;13.07;8.55;;;;;;;23.18;100.00;100339.59;5610642;31;33617;-68
2023/08/23 00:46:39;;;;;;;11.85;8.43;;;;;;;23.16;100.00;100336.31;5610330;31;33784;-68
2023/08/23 00:49:42;;;;;;;12.52;8.50;;;;;;;23.19;100.00;100338.50;5610859;31;34274;-68
2023/08/23 00:52:45;;;;;;;14.90;8.68;;;;;;;23.19;100.00;100332.31;5610539;31;33577;-68
2023/08/23 00:55:55;;;;;;;10.18;8.13;;;;;;;23.13;100.00;100330.59;5610333;31;33669;-68
2023/08/23 00:58:59;;;;;;;9.88;8.27;;;;;;;23.07;100.00;100328.87;5610421;31;33777;-68
2023/08/23 01:02:01;;;;;;;12.63;8.57;;;;;;;23.00;100.00;100326.34;5610500;31;34335;-68
2023/08/23 01:05:05;;;;;;;14.87;8.95;;;;;;;22.99;100.00;100327.44;5610296;31;33559;-68
2023/08/23 01:08:24;;;;;;;10.02;8.77;;;;;;;22.99;100.00;100330.16;5610259;31;33676;-67
2023/08/23 01:11:48;;;;;;;10.90;8.63;;;;;;;22.96;100.00;100325.22;5610296;31;33693;-68
2023/08/23 01:14:58;;;;;;;11.32;8.73;;;;;;;22.93;100.00;100329.25;5610250;31;33616;-68
2023/08/23 01:18:02;;;;;;;10.60;8.95;;;;;;;22.97;100.00;100324.16;5610645;31;34230;-68
2023/08/23 01:21:06;;;;;;;10.88;9.30;;;;;;;22.99;100.00;100323.91;5610513;31;33672;-68
2023/08/23 01:24:10;;;;;;;14.48;9.38;;;;;;;22.92;100.00;100326.78;5610162;31;33622;-68
2023/08/23 01:27:12;;;;;;;11.77;9.13;;;;;;;22.86;100.00;100325.91;5610193;31;34330;-68
2023/08/23 01:30:17;;;;;;;12.77;9.35;;;;;;;22.76;100.00;100324.94;5610528;31;33552;-68
2023/08/23 01:33:46;;;;;;;12.13;9.32;;;;;;;22.70;100.00;100325.91;5609954;31;33588;-68
2023/08/23 01:36:53;;;;;;;12.27;9.82;;;;;;;22.67;100.00;100315.56;5609998;31;33515;-68
2023/08/23 01:40:00;;;;;;;12.35;10.18;;;;;;;22.64;100.00;100313.38;5610061;31;33618;-68
2023/08/23 01:43:05;;;;;;;14.43;10.20;;;;;;;22.55;100.00;100318.41;5609996;31;33719;-68
2023/08/23 01:46:07;;;;;;;14.85;10.50;;;;;;;22.50;100.00;100321.03;5609758;31;34392;-68
2023/08/23 01:49:11;;;;;;;16.70;11.30;;;;;;;22.44;100.00;100322.00;5609894;31;33948;-68
2023/08/23 01:52:13;;;;;;;16.48;10.73;;;;;;;22.39;100.00;100317.34;5610091;31;33686;-68
2023/08/23 01:55:17;;;;;;;19.55;11.43;;;;;;;22.40;100.00;100310.06;5609789;31;34267;-69
2023/08/23 01:58:20;;;;;;;15.07;11.25;;;;;;;22.37;100.00;100308.66;5610095;31;33711;-68
2023/08/23 02:01:23;;;;;;;18.30;11.57;;;;;;;22.34;100.00;100308.31;5609925;31;33692;-68
2023/08/23 02:04:26;;;;;;;13.13;11.12;;;;;;;22.29;100.00;100300.97;5609800;31;34360;-68
2023/08/23 02:07:29;;;;;;;13.40;10.65;;;;;;;22.24;100.00;100297.34;5609778;31;34258;-69
2023/08/23 02:10:31;;;;;;;14.02;9.95;;;;;;;22.21;100.00;100301.37;5609798;31;33532;-68
2023/08/23 02:13:34;;;;;;;12.30;9.90;;;;;;;22.19;100.00;100294.56;5609817;31;33655;-68
2023/08/23 02:16:37;;;;;;;12.27;10.32;;;;;;;22.16;100.00;100293.19;5609590;31;33738;-68
2023/08/23 02:19:40;;;;;;;12.90;11.05;;;;;;;22.14;100.00;100284.50;5609589;31;33725;-68
2023/08/23 02:22:42;;;;;;;14.18;9.65;;;;;;;22.10;100.00;100288.75;5609613;31;34337;-68
2023/08/23 02:25:45;;;;;;;11.73;10.15;;;;;;;22.08;100.00;100294.41;5609718;31;33702;-68
2023/08/23 02:28:48;;;;;;;12.98;10.10;;;;;;;22.04;100.00;100287.84;5609547;31;33846;-68
2023/08/23 02:31:51;;;;;;;13.60;9.35;;;;;;;22.07;100.00;100284.66;5609506;31;33701;-68
2023/08/23 02:34:54;;;;;;;14.07;10.48;;;;;;;22.02;100.00;100283.78;5609802;31;33671;-68
2023/08/23 02:37:57;;;;;;;16.15;11.10;;;;;;;21.94;100.00;100290.38;5609500;31;34332;-68
2023/08/23 02:41:00;;;;;;;16.92;10.77;;;;;;;21.93;100.00;100291.44;5609491;31;34413;-68
2023/08/23 02:44:03;;;;;;;12.75;10.40;;;;;;;21.86;100.00;100298.03;5609433;31;34478;-68
2023/08/23 02:47:06;;;;;;;13.60;10.05;;;;;;;21.82;100.00;100295.00;5608601;31;33712;-69
2023/08/23 02:50:09;;;;;;;12.05;10.10;;;;;;;21.83;100.00;100291.25;5609723;31;33532;-68
2023/08/23 02:53:12;;;;;;;15.23;9.88;;;;;;;21.83;100.00;100287.72;5609402;31;34401;-69
2023/08/23 02:56:16;;;;;;;11.32;9.93;;;;;;;21.81;100.00;100284.44;5609386;31;33660;-69
2023/08/23 02:59:18;;;;;;;11.65;10.35;;;;;;;21.78;100.00;100283.06;5609757;31;33761;-68
2023/08/23 03:02:21;;;;;;;14.43;10.23;;;;;;;21.75;100.00;100286.22;5609132;31;33721;-68
2023/08/23 03:05:24;;;;;;;11.15;10.05;;;;;;;21.72;100.00;100285.91;5608412;31;34281;-69
2023/08/23 03:08:27;;;;;;;16.30;10.73;;;;;;;21.66;100.00;100287.69;5609230;31;34321;-68
2023/08/23 03:11:29;;;;;;;12.80;10.07;;;;;;;21.61;100.00;100283.03;5609604;31;33698;-68
2023/08/23 03:14:32;;;;;;;14.27;9.80;;;;;;;21.58;100.00;100280.81;5609277;31;33749;-68
2023/08/23 03:17:35;;;;;;;15.95;10.32;;;;;;;21.60;100.00;100284.06;5609501;31;33704;-69
2023/08/23 03:20:38;;;;;;;11.07;9.98;;;;;;;21.62;100.00;100275.75;5609121;31;34743;-68
2023/08/23 03:23:40;;;;;;;17.37;10.25;;;;;;;21.59;100.00;100277.03;5609160;31;33555;-68
2023/08/23 03:26:44;;;;;;;15.57;10.73;;;;;;;21.55;100.00;100275.88;5609009;31;33623;-69
2023/08/23 03:29:46;;;;;;;14.73;11.12;;;;;;;21.55;100.00;100286.69;5609383;31;33631;-69
2023/08/23 03:32:50;;;;;;;13.35;11.02;;;;;;;21.52;100.00;100289.06;5609001;31;33748;-68
2023/08/23 03:35:53;;;;;;;14.27;10.63;;;;;;;21.49;100.00;100278.75;5609229;31;33508;-69
2023/08/23 03:38:56;;;;;;;12.35;11.05;;;;;;;21.46;100.00;100285.44;5608784;31;33637;-68
2023/08/23 03:41:58;;;;;;;18.05;11.00;;;;;;;21.45;100.00;100283.78;5608777;31;34776;-67
2023/08/23 03:45:01;;;;;;;12.25;10.98;;;;;;;21.47;100.00;100280.84;5608585;31;33717;-68
2023/08/23 03:48:05;;;;;;;14.65;10.85;;;;;;;21.48;100.00;100280.63;5608676;31;33725;-67
2023/08/23 03:51:08;;;;;;;16.80;10.80;;;;;;;21.46;100.00;100288.13;5608710;31;33684;-67
2023/08/23 03:54:11;;;;;;;15.80;10.60;;;;;;;21.48;100.00;100279.81;5608848;31;33717;-67
2023/08/23 03:57:14;;;;;;;16.35;11.02;;;;;;;21.52;100.00;100278.25;5607196;31;33675;-67
2023/08/23 04:00:17;;;;;;;18.00;11.32;;;;;;;21.55;100.00;100288.56;5608564;31;34305;-68
2023/08/23 04:03:20;;;;;;;11.45;10.30;;;;;;;21.55;100.00;100285.84;5608544;31;34411;-67
2023/08/23 04:06:23;;;;;;;16.70;11.80;;;;;;;21.56;100.00;100282.09;5608509;31;33626;-67
2023/08/23 04:09:26;;;;;;;15.02;10.73;;;;;;;21.60;100.00;100275.16;5608469;31;34411;-68
2023/08/23 04:12:30;;;;;;;16.10;11.52;;;;;;;21.64;100.00;100274.41;5608362;31;33785;-67
2023/08/23 04:15:32;;;;;;;17.65;11.10;;;;;;;21.67;100.00;100278.53;5608249;31;34460;-68
2023/08/23 04:18:39;;;;;;;15.18;11.68;;;;;;;21.74;100.00;100275.66;5608534;31;33598;-67
2023/08/23 04:21:41;;;;;;;14.30;11.02;;;;;;;21.76;100.00;100270.84;5608222;31;34343;-67
2023/08/23 04:24:45;;;;;;;15.68;11.93;;;;;;;21.79;100.00;100268.47;5608201;31;33678;-68
2023/08/23 04:27:47;;;;;;;16.37;12.57;;;;;;;21.87;100.00;100265.41;5607323;31;33793;-68
2023/08/23 04:30:51;;;;;;;19.85;12.75;;;;;;;21.95;100.00;100251.50;5607849;31;33691;-68
2023/08/23 04:33:54;;;;;;;16.12;12.63;;;;;;;22.07;100.00;100249.53;5608314;31;33744;-68
2023/08/23 04:36:57;;;;;;;16.70;12.40;;;;;;;22.21;100.00;100255.44;5608158;31;33976;-68
2023/08/23 04:40:00;;;;;;;18.15;12.48;;;;;;;22.27;100.00;100259.03;5607844;31;33692;-68
2023/08/23 04:43:03;;;;;;;18.95;12.27;;;;;;;22.34;100.00;100259.69;5607808;31;34597;-68
2023/08/23 04:46:09;;;;;;;16.90;12.15;;;;;;;22.41;100.00;100258.41;5607595;31;33724;-68
2023/08/23 04:49:12;;;;;;;22.67;13.32;;;;;;;22.57;100.00;100262.16;5606909;31;33692;-68
2023/08/23 04:52:15;;;;;;;20.62;13.25;;;;;;;22.63;100.00;100268.47;5607513;31;32806;-68
2023/08/23 04:55:17;;;;;;;18.65;12.98;;;;;;;22.79;100.00;100264.94;5607501;31;33755;-68
2023/08/23 04:58:20;;;;;;;21.87;13.65;;;;;;;22.88;100.00;100258.03;5606711;31;33700;-67
2023/08/23 05:01:25;;;;;;;24.30;13.43;;;;;;;23.01;100.00;100259.53;5607486;31;33705;-68
2023/08/23 05:04:28;;;;;;;18.75;12.80;;;;;;;23.20;100.00;100250.84;5607481;31;33787;-68
2023/08/23 05:07:31;;;;;;;22.30;12.77;;;;;;;23.29;100.00;100256.59;5607498;31;33651;-69
2023/08/23 05:10:33;;;;;;;25.30;13.30;;;;;;;23.40;100.00;100261.06;5609638;31;33826;-68
2023/08/23 05:13:36;;;;;;;23.85;13.25;;;;;;;23.49;100.00;100262.28;5609156;31;34436;-68
2023/08/23 05:16:39;;;;;;;17.17;11.60;;;;;;;23.60;100.00;100255.06;5609159;31;33693;-69
2023/08/23 05:19:42;;;;;;;24.55;12.10;;;;;;;23.68;100.00;100258.13;5609889;31;33689;-69
2023/08/23 05:22:45;;;;;;;20.42;10.73;;;;;;;23.86;100.00;100256.97;5609974;31;33703;-69
2023/08/23 05:25:52;;;;;;;19.50;10.60;;;;;;;24.01;100.00;100254.34;5609975;31;33819;-69
2023/08/23 05:28:54;;;;;;;15.88;10.52;;;;;;;24.30;100.00;100259.50;5610045;31;34418;-68
2023/08/23 05:31:57;;;;;;;19.52;9.75;;;;;;;24.34;100.00;100258.72;5609733;31;33872;-68
2023/08/23 05:35:00;;;;;;;17.62;10.52;;;;;;;24.49;100.00;100266.12;5610000;31;33617;-70
2023/08/23 05:38:03;;;;;;;17.12;10.30;;;;;;;24.62;100.00;100265.66;5609405;31;33899;-70
2023/08/23 05:41:06;;;;;;;13.70;9.30;;;;;;;24.77;100.00;100263.03;5609761;31;33704;-70
2023/08/23 05:44:09;;;;;;;21.37;9.63;;;;;;;24.89;100.00;100260.13;5608874;31;33702;-70
2023/08/23 05:47:12;;;;;;;19.42;9.40;;;;;;;25.00;100.00;100273.47;5609601;31;33832;-70
2023/08/23 05:50:15;;;;;;;17.08;9.13;;;;;;;25.18;100.00;100271.34;5609604;31;33662;-70
2023/08/23 05:53:21;;;;;;;11.60;9.23;;;;;;;25.35;100.00;100269.25;5609658;31;33580;-71
2023/08/23 05:56:24;;;;;;;20.75;9.13;;;;;;;25.45;100.00;100261.97;5609741;31;33599;-71
2023/08/23 05:59:27;;;;;;;17.33;10.10;;;;;;;25.61;100.00;100267.47;5608736;31;33660;-71
2023/08/23 06:02:29;;;;;;;17.90;9.30;;;;;;;25.73;100.00;100260.66;5609531;31;34410;-70
2023/08/23 06:05:32;;;;;;;20.08;9.43;;;;;;;25.85;100.00;100265.84;5609692;31;34604;-70
2023/08/23 06:08:35;;;;;;;16.75;9.38;;;;;;;26.00;100.00;100268.56;5609292;31;33680;-71
2023/08/23 06:11:38;;;;;;;15.80;9.45;;;;;;;26.18;100.00;100264.47;5609371;31;33903;-71
2023/08/23 06:14:40;;;;;;;17.42;9.30;;;;;;;26.30;100.00;100271.28;5609589;31;34553;-71
2023/08/23 06:17:43;;;;;;;18.02;8.80;;;;;;;26.39;100.00;100271.53;5608944;31;33714;-71
2023/08/23 06:20:49;;;;;;;17.33;9.68;;;;;;;26.59;100.00;100274.22;5608646;31;33565;-70
2023/08/23 06:23:52;;;;;;;21.17;8.68;;;;;;;26.85;100.00;100272.25;5608540;31;33582;-71
2023/08/23 06:26:55;;;;;;;17.85;8.55;;;;;;;27.05;100.00;100276.84;5608524;31;33743;-72
2023/08/23 06:29:58;;;;;;;18.67;8.50;;;;;;;27.18;100.00;100292.56;5609415;31;34442;-72
2023/08/23 06:33:00;;;;;;;17.92;9.30;;;;;;;27.22;100.00;100285.47;5609143;31;33654;-71
2023/08/23 06:36:08;;;;;;;17.23;8.65;;;;;;;27.40;100.00;100293.00;5609236;31;34046;-71
2023/08/23 06:39:11;;;;;;;19.30;9.23;;;;;;;27.41;100.00;100288.37;5609131;31;33575;-71
2023/08/23 06:42:34;;;;;;;17.62;8.38;;;;;;;27.55;100.00;100287.50;5609065;31;34600;-71
2023/08/23 06:45:36;;;;;;;14.00;8.38;;;;;;;27.83;100.00;100288.69;5609522;31;33666;-70
2023/08/23 06:48:39;;;;;;;15.45;9.07;;;;;;;27.89;100.00;100295.72;5609477;31;33632;-70
2023/08/23 06:51:41;;;;;;;25.58;9.43;;;;;;;28.09;100.00;100289.28;5609205;31;33581;-70
2023/08/23 06:54:44;;;;;;;13.35;7.70;;;;;;;28.39;100.00;100291.78;5609084;31;33664;-70
2023/08/23 06:57:47;;;;;;;15.60;7.78;;;;;;;28.56;100.00;100285.91;5608884;31;33621;-70
2023/08/23 07:00:56;;;;;;;11.60;8.00;;;;;;;29.23;96.69;100295.78;5608892;31;33598;-70
2023/08/23 07:03:59;;;;;;;9.32;6.78;;;;;;;29.44;92.54;100292.78;5609138;31;34350;-70
2023/08/23 07:07:02;;;;;;;14.15;7.37;;;;;;;29.57;91.76;100300.28;5609013;31;33524;-70
2023/08/23 07:10:06;;;;;;;12.65;7.12;;;;;;;29.68;89.58;100304.47;5608325;31;34325;-72
2023/08/23 07:13:27;;;;;;;9.90;7.10;;;;;;;30.23;84.50;100300.06;5609087;31;33641;-72
2023/08/23 07:16:30;;;;;;;10.02;6.47;;;;;;;30.28;85.62;100300.00;5608719;31;33505;-71
2023/08/23 07:19:33;;;;;;;13.70;6.55;;;;;;;31.16;77.29;100300.84;5609229;31;33620;-72
2023/08/23 07:22:35;;;;;;;15.00;6.72;;;;;;;30.75;78.66;100301.63;5608844;31;33681;-71
2023/08/23 07:25:38;;;;;;;18.87;6.78;;;;;;;31.18;76.31;100307.63;5608846;31;33628;-72
2023/08/23 07:28:42;;;;;;;13.25;7.35;;;;;;;31.15;73.70;100316.47;5608744;31;34735;-71
2023/08/23 07:31:45;;;;;;;12.37;6.28;;;;;;;31.10;76.15;100321.25;5608728;31;33595;-72
2023/08/23 07:34:48;;;;;;;11.32;6.95;;;;;;;32.83;67.47;100322.34;5608903;31;33748;-71
2023/08/23 07:37:50;;;;;;;8.88;5.95;;;;;;;31.65;68.91;100328.31;5608449;31;33643;-72
2023/08/23 07:40:57;;;;;;;13.50;6.47;;;;;;;31.61;69.29;100323.75;5607708;31;33729;-72
2023/08/23 07:44:00;;;;;;;15.85;6.53;;;;;;;33.51;62.16;100323.69;5608060;31;33902;-71
2023/08/23 07:47:04;;;;;;;11.75;6.50;;;;;;;34.12;56.87;100317.12;5608217;31;33782;-72
2023/08/23 07:50:07;;;;;;;12.20;6.00;;;;;;;35.02;54.71;100328.87;5608690;31;34729;-71
2023/08/23 07:53:09;;;;;;;15.20;5.93;;;;;;;34.13;55.69;100323.44;5608292;31;33958;-71
2023/08/23 07:56:12;;;;;;;12.90;6.18;;;;;;;35.06;53.54;100338.09;5608410;31;33774;-71
2023/08/23 07:59:17;;;;;;;10.70;5.62;;;;;;;34.64;54.33;100339.88;5608196;31;33794;-71
2023/08/23 08:02:20;;;;;;;12.00;5.70;;;;;;;34.51;54.33;100331.81;5608401;31;34322;-72
2023/08/23 08:05:23;;;;;;;15.05;6.03;;;;;;;35.73;50.43;100342.75;5608272;31;34428;-73
2023/08/23 08:08:26;;;;;;;13.23;5.47;;;;;;;36.05;49.52;100333.72;5608452;31;34317;-72
2023/08/23 08:11:29;;;;;;;13.55;5.95;;;;;;;35.72;49.49;100338.41;5608436;31;33566;-71
2023/08/23 08:14:31;;;;;;;14.52;5.60;;;;;;;36.67;48.69;100332.78;5608179;31;34359;-71
2023/08/23 08:17:34;;;;;;;11.55;5.60;;;;;;;34.90;50.51;100328.78;5608250;31;34633;-71
2023/08/23 08:20:37;;;;;;;17.62;5.70;;;;;;;34.15;51.16;100326.66;5608138;31;34279;-71
2023/08/23 08:23:40;;;;;;;10.43;5.37;;;;;;;33.43;54.04;100322.56;5608089;31;33683;-71
2023/08/23 08:26:42;;;;;;;11.25;5.32;;;;;;;34.36;52.17;100325.69;5608025;31;33620;-71
2023/08/23 08:29:45;;;;;;;14.63;5.50;;;;;;;34.37;52.51;100334.75;5608370;31;33644;-72
2023/08/23 08:32:48;;;;;;;14.82;5.78;;;;;;;35.19;49.72;100322.50;5607888;31;34587;-73
2023/08/23 08:35:51;;;;;;;11.05;5.30;;;;;;;35.37;49.77;100325.94;5607794;31;34321;-71
2023/08/23 08:38:54;;;;;;;13.75;5.50;;;;;;;34.38;51.86;100317.88;5607519;31;33580;-71
2023/08/23 08:41:57;;;;;;;17.33;5.80;;;;;;;35.47;48.30;100322.78;5607093;31;34383;-71
2023/08/23 08:45:00;;;;;;;16.37;5.78;;;;;;;35.45;48.28;100320.38;5595349;31;33568;-71
2023/08/23 08:48:03;;;;;;;16.95;5.85;;;;;;;35.17;49.15;100322.00;5610023;31;33643;-71
2023/08/23 08:51:10;;;;;;;9.65;5.72;;;;;;;36.21;46.81;100319.31;5609766;31;34246;-71
2023/08/23 08:54:17;;;;;;;10.18;5.62;;;;;;;36.57;45.82;100319.38;5609537;31;33523;-71
2023/08/23 08:57:22;;;;;;;10.00;5.55;;;;;;;35.80;47.77;100329.22;5610063;31;33572;-70
2023/08/23 09:00:26;;;;;;;11.30;5.78;;;;;;;36.22;46.06;100334.72;5610132;31;33672;-70
2023/08/23 09:03:33;;;;;;;13.77;5.60;;;;;;;35.03;48.50;100326.91;5609156;31;33250;-70
2023/08/23 09:06:37;;;;;;;21.45;6.75;;;;;;;35.52;47.30;100323.41;5609785;31;33681;-71
2023/08/23 09:09:41;;;;;;;13.20;5.55;;;;;;;35.44;48.17;100329.00;5608973;31;34207;-71
2023/08/23 09:12:44;;;;;;;11.57;5.43;;;;;;;36.61;46.84;100322.28;5609717;31;33603;-73
2023/08/23 09:15:47;;;;;;;12.48;5.30;;;;;;;37.46;43.56;100333.41;5609025;31;34346;-71
2023/08/23 09:18:50;;;;;;;13.82;5.40;;;;;;;37.58;43.93;100327.84;5609744;31;34379;-70
2023/08/23 09:21:53;;;;;;;11.27;4.80;;;;;;;36.18;44.85;100318.03;5609761;31;33739;-71
2023/08/23 09:24:56;;;;;;;12.05;5.78;;;;;;;37.70;42.24;100331.41;5609130;31;34325;-71
2023/08/23 09:27:58;;;;;;;12.07;5.40;;;;;;;37.63;42.95;100331.19;5609824;31;34616;-68
2023/08/23 09:31:02;;;;;;;13.98;5.55;;;;;;;37.35;42.36;100324.75;5609828;31;34313;-70
2023/08/23 09:34:12;;;;;;;12.85;5.37;;;;;;;37.22;42.10;100320.41;5610020;31;33608;-70
2023/08/23 09:37:17;;;;;;;11.27;4.90;;;;;;;35.91;44.83;100324.09;5609758;31;34400;-71
2023/08/23 09:40:26;;;;;;;24.17;5.35;;;;;;;36.84;43.93;100304.16;5608944;31;33675;-70
2023/08/23 09:43:33;;;;;;;10.27;5.62;;;;;;;38.60;40.86;100316.94;5609895;31;34323;-70
2023/08/23 09:46:37;;;;;;;9.02;5.05;;;;;;;38.14;40.75;100307.38;5611896;31;33563;-70
2023/08/23 09:49:43;;;;;;;13.75;5.62;;;;;;;38.25;40.75;100314.00;5610409;31;34319;-69
2023/08/23 09:52:51;;;;;;;16.90;5.37;;;;;;;38.44;39.92;100307.00;5610517;31;33617;-70
2023/08/23 09:55:54;;;;;;;;;;;;;;;37.21;42.10;100302.19;5609708;31;33616;-69
2023/08/23 09:58:58;;;;;;;11.30;5.57;;;;;;;38.48;39.69;100300.41;5609915;31;34298;-71
2023/08/23 10:02:02;;;;;;;11.90;5.25;;;;;;;39.27;39.29;100308.66;5609338;31;33603;-72
2023/08/23 10:05:06;;;;;;;14.75;5.25;;;;;;;35.74;44.86;100314.00;5608974;31;34299;-70
2023/08/23 10:08:11;;;;;;;14.38;6.15;;;;;;;34.76;47.76;100311.66;5609410;31;34729;-69
2023/08/23 10:11:18;;;;;;;13.07;5.82;;;;;;;34.60;47.91;100305.84;5608594;31;33643;-70
2023/08/23 10:14:21;;;;;;;14.98;6.53;;;;;;;33.57;51.83;100305.91;5609223;31;33806;-70
2023/08/23 10:17:26;;;;;;;15.82;5.95;;;;;;;33.66;52.70;100312.22;5609394;31;33608;-69
2023/08/23 10:20:33;;;;;;;10.80;6.70;;;;;;;33.13;53.30;100298.69;5608746;31;33659;-72
2023/08/23 10:23:36;;;;;;;17.55;6.70;;;;;;;32.88;54.44;100304.91;5609487;31;33670;-70
2023/08/23 10:26:52;;;;;;;12.85;7.20;;;;;;;32.41;56.77;100304.50;5609826;31;34481;-69
2023/08/23 10:29:55;;;;;;;12.10;6.93;;;;;;;32.30;57.77;100297.66;5609711;31;33751;-69
2023/08/23 10:33:20;;;;;;;11.73;7.15;;;;;;;32.90;57.47;100297.97;5609362;31;33790;-69
2023/08/23 10:36:27;;;;;;;15.68;7.53;;;;;;;32.68;58.17;100296.09;5609288;31;34759;-70
2023/08/23 10:39:31;;;;;;;13.52;7.12;;;;;;;32.71;58.43;100292.75;5609714;31;33737;-69
2023/08/23 10:42:34;;;;;;;15.15;7.70;;;;;;;33.81;54.45;100291.69;5608601;31;33564;-70
2023/08/23 10:46:06;;;;;;;11.45;6.85;;;;;;;35.34;49.65;100302.63;5609134;31;34013;-70
2023/08/23 10:49:11;;;;;;;12.37;6.53;;;;;;;37.42;44.88;100287.03;5609364;31;33629;-70
2023/08/23 10:52:14;;;;;;;11.20;6.87;;;;;;;38.16;43.30;100291.19;5609191;31;34362;-70
2023/08/23 10:55:17;;;;;;;12.55;6.93;;;;;;;37.86;43.60;100279.62;5608763;31;33637;-70
2023/08/23 10:58:20;;;;;;;9.82;6.55;;;;;;;38.94;41.42;100287.69;5609231;31;33552;-69
2023/08/23 11:01:23;;;;;;;15.93;7.05;;;;;;;39.75;39.45;100296.25;5608897;31;33699;-71
2023/08/23 11:04:26;;;;;;;12.30;6.53;;;;;;;38.98;40.77;100288.56;5609190;31;33762;-68
2023/08/23 11:07:30;;;;;;;9.40;6.35;;;;;;;41.56;36.84;100292.66;5608549;31;33378;-70
2023/08/23 11:10:32;;;;;;;11.65;6.30;;;;;;;39.97;38.52;100290.78;5609321;31;33743;-71
2023/08/23 11:13:36;;;;;;;8.18;5.95;;;;;;;40.84;36.97;100291.16;5609239;31;33842;-69
2023/08/23 11:16:39;;;;;;;8.93;5.78;;;;;;;39.68;38.33;100283.03;5609095;31;33631;-70
2023/08/23 11:19:42;;;;;;;9.30;5.78;;;;;;;40.28;37.45;100289.00;5608617;31;33821;-69
2023/08/23 11:22:46;;;;;;;14.85;5.57;;;;;;;39.37;38.01;100289.50;5608923;31;34306;-70
2023/08/23 11:25:49;;;;;;;12.15;4.87;;;;;;;40.80;35.38;100280.00;5608925;31;33643;-70
2023/08/23 11:28:52;;;;;;;8.20;4.78;;;;;;;37.39;40.14;100275.84;5608872;31;34200;-71
2023/08/23 11:31:57;;;;;;;11.35;5.47;;;;;;;38.03;39.02;100272.22;5608926;31;33560;-70
2023/08/23 11:35:00;;;;;;;15.73;5.80;;;;;;;38.02;39.77;100276.12;5608003;31;33763;-70
2023/08/23 11:38:05;;;;;;;11.40;5.75;;;;;;;38.02;40.62;100259.53;5608480;31;34298;-70
2023/08/23 11:41:09;;;;;;;11.82;4.75;;;;;;;40.24;37.09;100275.03;5608595;31;33735;-71
2023/08/23 11:44:12;;;;;;;7.47;4.97;;;;;;;37.31;39.77;100272.09;5608931;31;34730;-70
2023/08/23 11:47:16;;;;;;;16.17;5.30;;;;;;;36.23;41.47;100262.56;5608630;31;34693;-70
2023/08/23 11:50:20;;;;;;;11.55;5.45;;;;;;;35.71;43.76;100259.50;5608112;31;34323;-69
2023/08/23 11:53:23;;;;;;;8.18;5.50;;;;;;;35.15;44.48;100253.34;5608864;31;33564;-70
2023/08/23 11:56:26;;;;;;;8.13;5.62;;;;;;;34.90;45.40;100251.59;5608570;31;34216;-69
2023/08/23 11:59:29;;;;;;;13.75;6.37;;;;;;;34.22;48.29;100249.91;5608602;31;33506;-69
2023/08/23 12:02:32;;;;;;;13.80;6.40;;;;;;;35.49;46.19;100248.75;5608471;31;33557;-70
2023/08/23 12:05:55;;;;;;;9.40;5.35;;;;;;;38.21;41.89;100259.62;5607617;31;34134;-70
2023/08/23 12:08:58;;;;;;;8.27;5.57;;;;;;;39.61;37.51;100248.72;5608539;31;33560;-70
2023/08/23 12:12:03;;;;;;;12.68;5.45;;;;;;;40.07;36.83;100261.59;5608592;31;33572;-69
2023/08/23 12:15:06;;;;;;;10.52;4.62;;;;;;;40.86;35.41;100256.25;5608394;31;33377;-70
2023/08/23 12:18:09;;;;;;;11.32;4.80;;;;;;;42.52;32.97;100265.06;5607372;31;33615;-70
2023/08/23 12:21:12;;;;;;;8.98;4.45;;;;;;;43.36;31.69;100255.69;5608411;31;33600;-71
2023/08/23 12:24:16;;;;;;;9.98;4.62;;;;;;;43.08;31.10;100251.59;5608281;31;33703;-69
2023/08/23 12:27:19;;;;;;;7.05;4.43;;;;;;;41.85;33.15;100260.38;5608271;31;33555;-70
2023/08/23 12:30:21;;;;;;;10.60;4.07;;;;;;;42.74;32.26;100245.34;5608282;31;33741;-69
2023/08/23 12:33:24;;;;;;;5.85;3.97;;;;;;;44.15;29.34;100252.81;5607967;31;33652;-72
2023/08/23 12:36:27;;;;;;;7.35;4.18;;;;;;;41.54;32.00;100255.25;5608020;31;33562;-70
2023/08/23 12:39:30;;;;;;;11.43;4.47;;;;;;;38.33;37.25;100233.81;5607177;31;33728;-69
2023/08/23 12:42:32;;;;;;;6.72;4.53;;;;;;;38.81;36.69;100240.97;5608193;31;33674;-70
2023/08/23 12:45:35;;;;;;;7.97;4.07;;;;;;;39.13;35.93;100229.47;5607777;31;32779;-69
2023/08/23 12:48:42;;;;;;;8.02;4.10;;;;;;;39.29;36.27;100231.38;5607702;31;33563;-69
2023/08/23 12:51:46;;;;;;;8.18;4.40;;;;;;;39.68;35.92;100229.44;5607778;31;33700;-69
2023/08/23 12:54:49;;;;;;;9.63;4.70;;;;;;;38.99;36.81;100229.16;5607769;31;33718;-69
2023/08/23 12:57:52;;;;;;;15.27;4.70;;;;;;;38.63;37.46;100219.16;5607564;31;33549;-70
2023/08/23 13:00:56;;;;;;;11.40;4.43;;;;;;;39.40;37.27;100222.16;5607593;31;34116;-70
2023/08/23 13:04:02;;;;;;;7.45;4.20;;;;;;;39.86;35.85;100219.50;5607479;31;34360;-69
2023/08/23 13:07:05;;;;;;;10.38;3.92;;;;;;;37.05;40.04;100201.66;5607131;31;34251;-68
2023/08/23 13:10:08;;;;;;;12.70;4.07;;;;;;;36.50;40.64;100198.34;5606569;31;33541;-70
2023/08/23 13:13:11;;;;;;;6.72;4.20;;;;;;;39.18;36.09;100206.19;5607289;31;34289;-70
2023/08/23 13:16:13;;;;;;;9.63;4.10;;;;;;;38.67;36.05;100199.84;5606359;31;34322;-69
2023/08/23 13:19:20;;;;;;;7.87;3.70;;;;;;;39.37;35.00;100202.63;5606894;31;34315;-68
2023/08/23 13:22:23;;;;;;;10.70;4.10;;;;;;;37.39;37.86;100198.38;5606846;31;33644;-70
2023/08/23 13:25:28;;;;;;;9.90;3.67;;;;;;;37.31;38.26;100196.56;5607506;31;34366;-69
2023/08/23 13:28:31;;;;;;;12.95;4.18;;;;;;;40.14;34.49;100208.91;5607063;31;33735;-68
2023/08/23 13:31:34;;;;;;;8.63;4.10;;;;;;;40.94;33.95;100199.50;5609137;31;33737;-68
2023/08/23 13:34:36;;;;;;;6.12;3.95;;;;;;;41.98;32.30;100199.63;5609716;31;33789;-68
2023/08/23 13:37:39;;;;;;;8.45;3.70;;;;;;;40.72;33.05;100192.03;5610025;31;34373;-68
2023/08/23 13:40:42;;;;;;;11.00;3.92;;;;;;;39.33;34.71;100197.00;5609893;31;33549;-69
2023/08/23 13:43:45;;;;;;;12.50;4.00;;;;;;;40.24;34.00;100197.19;5609602;31;33555;-70
2023/08/23 13:46:47;;;;;;;7.15;3.83;;;;;;;40.11;34.38;100195.75;5609737;31;33659;-70
2023/08/23 13:49:50;;;;;;;19.98;4.15;;;;;;;40.12;34.09;100186.25;5609776;31;34276;-69
2023/08/23 13:52:53;;;;;;;9.68;3.33;;;;;;;40.05;34.01;100191.69;5609695;31;34365;-70
2023/08/23 13:55:56;;;;;;;9.38;3.92;;;;;;;40.79;32.41;100192.13;5609712;31;33645;-68
2023/08/23 13:58:59;;;;;;;6.45;3.35;;;;;;;40.14;32.85;100192.22;5608302;31;35003;-69